Time;durP1;ratioP1;P1;durP2;ratioP2;P2;SDS_P1;SDS_P2;PMS_P1;PMS_P2;Temp;Humidity;BMP_temperature;BMP_pressure;BME280_temperature;BME280_humidity;BME280_pressure;Samples;Min_cycle;Max_cycle;Signal;HPM_P1;HPM_P2
2023/12/27 00:00:35;;;;;;;61.28;31.70;;;;;;;4.95;91.96;100298.78;5034296;28;20037;-79
2023/12/27 00:03:00;;;;;;;61.22;32.80;;;;;;;5.04;91.45;100308.28;5042209;28;20037;-79
2023/12/27 00:05:26;;;;;;;88.40;39.40;;;;;;;4.88;92.78;100303.13;5048690;28;20045;-78
2023/12/27 00:07:51;;;;;;;97.65;43.08;;;;;;;4.93;90.09;100306.06;5061767;28;20025;-79
2023/12/27 00:10:16;;;;;;;157.95;58.78;;;;;;;4.71;91.49;100292.66;5051212;28;20569;-79
2023/12/27 00:12:42;;;;;;;61.50;32.28;;;;;;;4.85;93.06;100308.78;5048912;28;20025;-80
2023/12/27 00:15:08;;;;;;;65.15;36.35;;;;;;;4.91;92.24;100310.72;5048546;28;20029;-80
2023/12/27 00:17:34;;;;;;;60.92;32.70;;;;;;;4.86;91.49;100305.94;5048797;28;20522;-79
2023/12/27 00:19:59;;;;;;;71.15;35.15;;;;;;;5.03;91.35;100322.53;5050782;28;20059;-79
2023/12/27 00:22:25;;;;;;;65.47;32.22;;;;;;;4.72;91.57;100296.97;5048467;28;20103;-80
2023/12/27 00:24:50;;;;;;;68.53;34.33;;;;;;;4.69;92.53;100315.78;5048143;28;20115;-79
2023/12/27 00:27:16;;;;;;;71.60;35.05;;;;;;;4.70;91.04;100332.47;5048873;28;20544;-80
2023/12/27 00:29:41;;;;;;;50.17;29.60;;;;;;;4.59;91.17;100325.75;5046060;28;20491;-79
2023/12/27 00:32:09;;;;;;;82.75;35.80;;;;;;;4.38;90.25;100302.59;5028071;28;20021;-80
2023/12/27 00:34:35;;;;;;;88.63;38.00;;;;;;;4.38;90.47;100324.53;5045725;28;20025;-80
2023/12/27 00:37:00;;;;;;;95.75;40.38;;;;;;;4.23;90.90;100310.44;5048144;28;20070;-80
2023/12/27 00:39:26;;;;;;;57.50;28.55;;;;;;;4.28;91.47;100323.91;5050462;28;20025;-79
2023/12/27 00:41:52;;;;;;;48.10;26.63;;;;;;;4.27;92.81;100337.28;5047896;28;20025;-79
2023/12/27 00:44:18;;;;;;;46.35;26.35;;;;;;;3.84;95.63;100332.28;5030205;28;20459;-79
2023/12/27 00:46:43;;;;;;;52.47;28.80;;;;;;;3.29;98.18;100302.22;5047883;28;20470;-79
2023/12/27 00:49:09;;;;;;;47.33;27.13;;;;;;;3.91;96.35;100345.66;5050643;28;20036;-79
2023/12/27 00:51:34;;;;;;;44.85;27.80;;;;;;;4.13;95.28;100338.84;5047980;28;20028;-79
2023/12/27 00:54:00;;;;;;;45.75;27.75;;;;;;;4.42;93.38;100322.38;5049978;28;20040;-79
2023/12/27 00:56:25;;;;;;;71.35;33.47;;;;;;;3.38;96.86;100319.66;5047742;28;20025;-80
2023/12/27 00:58:51;;;;;;;69.45;35.25;;;;;;;2.63;99.25;100342.63;5047805;28;20044;-78
2023/12/27 01:01:17;;;;;;;63.08;33.03;;;;;;;3.21;96.26;100337.31;5030785;28;20039;-79
2023/12/27 01:03:42;;;;;;;53.03;31.35;;;;;;;3.59;94.44;100334.97;5034502;28;20032;-79
2023/12/27 01:06:09;;;;;;;61.45;31.90;;;;;;;3.63;96.22;100359.22;5047284;28;20040;-78
2023/12/27 01:08:35;;;;;;;59.47;31.67;;;;;;;3.66;96.30;100353.63;5047482;28;20035;-79
2023/12/27 01:11:00;;;;;;;64.70;32.60;;;;;;;3.46;97.71;100355.75;5047338;28;20049;-79
2023/12/27 01:13:26;;;;;;;66.07;34.38;;;;;;;2.71;99.29;100345.28;5046696;28;20031;-79
2023/12/27 01:15:51;;;;;;;60.22;33.00;;;;;;;2.96;98.30;100360.19;5046607;28;20021;-79
2023/12/27 01:18:16;;;;;;;56.45;31.73;;;;;;;2.95;99.15;100363.78;5028895;28;20052;-78
2023/12/27 01:20:42;;;;;;;52.88;27.92;;;;;;;2.65;100.00;100341.50;5046335;28;20116;-79
2023/12/27 01:23:07;;;;;;;47.60;26.60;;;;;;;3.03;100.00;100323.47;5046942;28;20021;-80
2023/12/27 01:25:33;;;;;;;46.67;26.35;;;;;;;3.28;100.00;100332.19;5047056;28;20559;-79
2023/12/27 01:27:58;;;;;;;46.95;25.20;;;;;;;3.55;100.00;100361.84;5029557;28;20063;-79
2023/12/27 01:30:23;;;;;;;43.47;26.55;;;;;;;3.84;99.22;100379.78;5047381;28;20496;-79
2023/12/27 01:32:49;;;;;;;44.15;27.63;;;;;;;3.90;97.38;100365.09;5047426;28;20017;-79
2023/12/27 01:35:15;;;;;;;48.15;27.98;;;;;;;3.94;96.84;100367.25;5047347;28;20032;-78
2023/12/27 01:37:40;;;;;;;56.00;29.23;;;;;;;3.61;97.91;100354.09;5029412;28;20036;-78
2023/12/27 01:40:06;;;;;;;50.55;28.88;;;;;;;4.03;97.08;100373.34;5047285;28;20066;-79
2023/12/27 01:42:33;;;;;;;53.97;31.38;;;;;;;3.45;100.00;100327.72;5047065;28;20115;-79
2023/12/27 01:44:59;;;;;;;58.60;31.75;;;;;;;3.48;100.00;100318.69;5047306;28;20068;-79
2023/12/27 01:47:25;;;;;;;56.13;30.25;;;;;;;3.44;100.00;100333.19;5047104;28;20056;-79
2023/12/27 01:49:52;;;;;;;53.03;29.05;;;;;;;3.74;100.00;100344.84;5049718;28;20064;-79
2023/12/27 01:52:17;;;;;;;52.03;29.63;;;;;;;3.86;98.02;100338.22;5047225;28;20060;-78
2023/12/27 01:54:43;;;;;;;53.58;30.60;;;;;;;3.94;97.40;100369.91;5047176;28;20406;-78
2023/12/27 01:57:09;;;;;;;58.17;31.08;;;;;;;3.76;97.17;100333.16;5046864;28;20029;-79
2023/12/27 01:59:34;;;;;;;59.85;31.73;;;;;;;3.51;99.27;100332.34;5031494;28;20033;-80
2023/12/27 02:02:00;;;;;;;58.15;29.85;;;;;;;2.96;100.00;100327.72;5047146;28;20102;-78
2023/12/27 02:04:27;;;;;;;58.65;30.50;;;;;;;3.65;97.60;100344.03;5047247;28;20532;-78
2023/12/27 02:06:52;;;;;;;74.57;36.22;;;;;;;3.09;100.00;100367.59;5047284;28;20052;-78
2023/12/27 02:09:19;;;;;;;117.93;50.70;;;;;;;2.59;100.00;100347.41;5049544;28;20037;-79
2023/12/27 02:11:45;;;;;;;94.85;42.42;;;;;;;2.83;99.85;100364.25;5047286;28;20143;-78
2023/12/27 02:14:10;;;;;;;79.45;35.75;;;;;;;2.60;100.00;100312.19;5047276;28;20108;-79
2023/12/27 02:16:36;;;;;;;60.88;32.70;;;;;;;2.77;99.46;100349.91;5029070;28;20465;-78
2023/12/27 02:19:04;;;;;;;58.80;28.98;;;;;;;2.42;99.57;100352.59;5046969;28;20036;-79
2023/12/27 02:21:31;;;;;;;60.10;32.83;;;;;;;1.97;99.77;100337.94;5049158;28;20056;-78
2023/12/27 02:24:00;;;;;;;57.80;29.58;;;;;;;1.81;99.44;100311.53;5046892;28;20474;-79
2023/12/27 02:26:26;;;;;;;63.63;31.27;;;;;;;2.17;99.77;100333.25;5046631;28;20025;-79
2023/12/27 02:28:51;;;;;;;55.28;30.63;;;;;;;2.83;98.31;100364.25;5043150;28;20036;-78
2023/12/27 02:31:17;;;;;;;78.65;36.35;;;;;;;2.87;98.58;100373.50;5052999;28;20037;-79
2023/12/27 02:33:44;;;;;;;69.57;36.20;;;;;;;2.29;99.59;100378.56;5050583;28;20025;-79
2023/12/27 02:36:10;;;;;;;65.78;34.20;;;;;;;2.45;99.28;100367.25;5050475;28;20070;-78
2023/12/27 02:38:36;;;;;;;64.72;33.38;;;;;;;2.29;99.98;100373.28;5050478;28;20055;-79
2023/12/27 02:41:02;;;;;;;69.55;34.85;;;;;;;2.63;98.26;100358.44;5050657;28;20032;-79
2023/12/27 02:43:27;;;;;;;62.50;33.05;;;;;;;2.94;95.88;100388.50;5050516;28;20048;-79
2023/12/27 02:45:53;;;;;;;84.35;40.83;;;;;;;2.81;96.70;100370.50;5032214;28;20029;-79
2023/12/27 02:48:18;;;;;;;81.90;38.03;;;;;;;2.78;97.99;100362.94;5030561;28;20532;-78
2023/12/27 02:50:44;;;;;;;71.30;36.00;;;;;;;2.76;96.26;100380.72;5046095;28;20447;-78
2023/12/27 02:53:13;;;;;;;55.95;31.67;;;;;;;2.94;96.63;100399.03;5049597;28;20032;-79
2023/12/27 02:55:38;;;;;;;;;;;;;;;2.77;98.46;100403.41;5050960;28;20120;-79
2023/12/27 02:58:03;;;;;;;60.90;33.95;;;;;;;2.89;97.82;100384.69;5050140;28;20015;-79
2023/12/27 03:00:34;;;;;;;66.97;36.47;;;;;;;2.96;98.78;100377.78;5052121;28;20021;-79
2023/12/27 03:03:00;;;;;;;63.33;38.45;;;;;;;2.77;98.46;100365.72;5050173;28;20084;-79
2023/12/27 03:05:26;;;;;;;63.83;34.70;;;;;;;2.50;100.00;100404.47;5049834;28;20048;-79
2023/12/27 03:07:51;;;;;;;64.55;34.90;;;;;;;2.80;100.00;100404.94;5049745;28;20069;-79
2023/12/27 03:10:16;;;;;;;61.17;36.85;;;;;;;2.86;100.00;100411.34;5052226;28;20111;-79
2023/12/27 03:12:42;;;;;;;57.67;34.38;;;;;;;2.88;99.68;100383.03;5049870;28;20025;-79
2023/12/27 03:15:08;;;;;;;58.55;32.28;;;;;;;3.01;98.80;100391.31;5049698;28;20052;-79
2023/12/27 03:17:33;;;;;;;60.92;31.48;;;;;;;3.35;97.15;100432.53;5049577;28;20036;-79
2023/12/27 03:19:59;;;;;;;105.43;45.55;;;;;;;3.40;95.43;100419.69;5033985;28;20504;-79
2023/12/27 03:22:24;;;;;;;74.57;33.60;;;;;;;3.38;95.81;100424.31;5049386;28;20031;-79
2023/12/27 03:24:49;;;;;;;67.93;34.10;;;;;;;3.46;95.45;100432.22;5049862;28;20453;-79
2023/12/27 03:27:15;;;;;;;65.15;33.13;;;;;;;3.49;95.11;100431.88;5049566;28;20044;-79
2023/12/27 03:29:41;;;;;;;58.72;30.95;;;;;;;3.34;94.96;100426.44;5049885;28;20033;-79
2023/12/27 03:32:06;;;;;;;61.65;32.58;;;;;;;3.30;94.19;100419.84;5049023;28;20124;-80
2023/12/27 03:34:32;;;;;;;75.20;33.75;;;;;;;3.40;94.21;100451.34;5031145;28;20108;-79
2023/12/27 03:36:57;;;;;;;190.25;56.75;;;;;;;3.30;93.12;100426.94;5029252;28;20052;-79
2023/12/27 03:39:23;;;;;;;98.90;38.30;;;;;;;3.17;92.76;100436.13;5030860;28;20029;-78
2023/12/27 03:41:49;;;;;;;91.65;35.13;;;;;;;3.11;94.67;100431.50;5033673;28;20033;-79
2023/12/27 03:44:14;;;;;;;64.03;29.83;;;;;;;2.71;98.83;100419.03;5049440;28;20036;-79
2023/12/27 03:46:39;;;;;;;36.47;22.60;;;;;;;2.79;96.84;100390.91;5049308;28;20072;-79
2023/12/27 03:49:05;;;;;;;42.58;21.55;;;;;;;2.72;97.76;100368.84;5048746;28;20029;-79
2023/12/27 03:51:30;;;;;;;37.45;21.40;;;;;;;2.78;99.00;100405.06;5051602;28;20094;-77
2023/12/27 03:53:56;;;;;;;38.65;21.65;;;;;;;2.78;99.67;100409.53;5048745;28;20028;-78
2023/12/27 03:56:21;;;;;;;133.98;46.13;;;;;;;3.14;95.95;100404.81;5049287;28;20693;-78
2023/12/27 03:58:47;;;;;;;46.17;23.48;;;;;;;3.16;94.74;100438.94;5030544;28;20021;-78
2023/12/27 04:01:12;;;;;;;46.47;23.17;;;;;;;3.25;94.32;100439.75;5033537;28;20036;-80
2023/12/27 04:03:39;;;;;;;36.53;21.48;;;;;;;2.92;96.23;100427.34;5049297;28;20025;-79
2023/12/27 04:06:05;;;;;;;91.95;41.28;;;;;;;3.10;94.38;100419.31;5048436;28;20059;-78
2023/12/27 04:08:30;;;;;;;84.70;40.47;;;;;;;3.11;93.72;100423.59;5048952;28;20029;-79
2023/12/27 04:10:55;;;;;;;75.07;34.83;;;;;;;3.07;92.67;100422.28;5033267;28;20025;-79
2023/12/27 04:13:21;;;;;;;54.97;27.70;;;;;;;2.48;96.25;100419.59;5048305;28;20486;-79
2023/12/27 04:15:46;;;;;;;42.67;23.40;;;;;;;2.61;97.19;100429.69;5048764;28;20025;-79
2023/12/27 04:18:12;;;;;;;41.78;22.55;;;;;;;1.97;99.61;100400.22;5048916;28;20025;-78
2023/12/27 04:20:37;;;;;;;65.72;32.30;;;;;;;1.72;100.00;100422.91;5048387;28;20037;-79
2023/12/27 04:23:03;;;;;;;98.93;41.05;;;;;;;1.80;100.00;100442.19;5048808;28;20401;-79
2023/12/27 04:25:28;;;;;;;51.78;28.25;;;;;;;2.29;98.73;100462.78;5048617;28;20064;-79
2023/12/27 04:27:54;;;;;;;41.25;26.52;;;;;;;2.32;96.73;100430.03;5030442;28;20029;-79
2023/12/27 04:30:19;;;;;;;41.25;24.83;;;;;;;2.34;98.19;100459.66;5033127;28;20143;-79
2023/12/27 04:32:45;;;;;;;50.67;27.40;;;;;;;1.94;100.00;100461.88;5048227;28;20032;-80
2023/12/27 04:35:10;;;;;;;55.13;28.80;;;;;;;1.80;100.00;100434.31;5030492;28;20032;-79
2023/12/27 04:37:35;;;;;;;52.30;28.17;;;;;;;2.30;99.62;100472.31;5047753;28;20040;-79
2023/12/27 04:40:01;;;;;;;54.03;26.48;;;;;;;2.36;98.67;100461.16;5048236;28;20029;-78
2023/12/27 04:42:26;;;;;;;41.53;24.40;;;;;;;2.32;99.09;100472.97;5066991;28;20036;-79
2023/12/27 04:44:51;;;;;;;41.97;26.60;;;;;;;2.55;99.02;100459.28;5068385;28;20025;-79
2023/12/27 04:47:17;;;;;;;43.13;24.90;;;;;;;2.55;99.27;100477.72;5068294;28;20085;-80
2023/12/27 04:49:42;;;;;;;43.42;24.95;;;;;;;2.33;99.35;100453.59;5066548;28;20398;-79
2023/12/27 04:52:09;;;;;;;43.03;27.17;;;;;;;2.56;98.53;100458.31;5050297;28;20028;-79
2023/12/27 04:54:34;;;;;;;184.05;84.43;;;;;;;2.99;96.33;100504.75;5047918;28;20082;-79
2023/12/27 04:56:59;;;;;;;42.97;27.13;;;;;;;3.27;95.68;100515.06;5047327;28;20029;-79
2023/12/27 04:59:25;;;;;;;66.63;32.05;;;;;;;3.10;95.29;100511.53;5029850;28;20028;-81
2023/12/27 05:01:50;;;;;;;72.53;32.50;;;;;;;3.17;95.49;100517.03;5057989;28;20809;-79
2023/12/27 05:04:16;;;;;;;148.95;53.65;;;;;;;2.17;98.54;100491.13;5055321;28;20024;-80
2023/12/27 05:06:41;;;;;;;106.78;46.35;;;;;;;2.52;97.70;100492.00;5057980;28;20480;-79
2023/12/27 05:09:06;;;;;;;55.55;36.17;;;;;;;2.17;98.27;100448.22;5049719;28;20029;-78
2023/12/27 05:11:32;;;;;;;61.70;38.35;;;;;;;1.92;97.99;100511.19;5047413;28;20033;-78
2023/12/27 05:13:57;;;;;;;50.65;30.25;;;;;;;1.52;98.61;100533.47;5047146;28;20027;-79
2023/12/27 05:16:23;;;;;;;52.42;29.00;;;;;;;0.73;99.96;100526.13;5047311;28;20024;-79
2023/12/27 05:18:48;;;;;;;53.90;30.42;;;;;;;1.12;98.65;100503.13;5047322;28;20040;-79
2023/12/27 05:21:17;;;;;;;53.47;30.90;;;;;;;1.22;97.97;100525.91;5052247;28;20013;-78
2023/12/27 05:23:42;;;;;;;56.28;29.35;;;;;;;1.14;97.54;100524.81;5047354;28;20123;-79
2023/12/27 05:26:08;;;;;;;50.85;28.88;;;;;;;1.44;97.01;100519.41;5046991;28;20104;-80
2023/12/27 05:28:34;;;;;;;54.53;29.38;;;;;;;1.75;97.98;100548.81;5046929;28;20060;-79
2023/12/27 05:30:59;;;;;;;53.80;28.83;;;;;;;1.71;96.95;100511.47;5048651;28;20100;-78
2023/12/27 05:33:25;;;;;;;73.32;33.60;;;;;;;1.87;96.73;100537.09;5047122;28;20029;-79
2023/12/27 05:35:51;;;;;;;48.85;27.88;;;;;;;1.67;99.04;100560.06;5047476;28;20028;-79
2023/12/27 05:38:16;;;;;;;44.65;25.88;;;;;;;1.81;99.33;100554.28;5047532;28;20052;-79
2023/12/27 05:40:42;;;;;;;41.28;25.42;;;;;;;1.68;98.18;100555.66;5049764;28;20020;-79
2023/12/27 05:43:07;;;;;;;44.45;24.65;;;;;;;1.35;100.00;100563.19;5046981;28;20043;-79
2023/12/27 05:45:32;;;;;;;60.08;31.33;;;;;;;1.37;99.99;100548.09;5047356;28;20112;-79
2023/12/27 05:47:58;;;;;;;63.78;32.17;;;;;;;1.68;98.90;100581.94;5047424;28;20025;-79
2023/12/27 05:50:23;;;;;;;63.13;29.98;;;;;;;1.58;98.97;100584.63;5048235;28;20075;-78
2023/12/27 05:52:49;;;;;;;62.13;34.03;;;;;;;1.37;100.00;100571.75;5030833;28;20039;-78
2023/12/27 05:55:15;;;;;;;65.05;36.35;;;;;;;1.29;100.00;100569.00;5029297;28;20021;-78
2023/12/27 05:57:41;;;;;;;59.95;32.30;;;;;;;1.26;100.00;100590.31;5047446;28;20029;-79
2023/12/27 06:00:07;;;;;;;72.57;39.40;;;;;;;1.42;100.00;100577.38;5047119;28;20029;-79
2023/12/27 06:02:33;;;;;;;67.35;40.28;;;;;;;1.80;98.90;100580.75;5050238;28;20464;-79
2023/12/27 06:04:58;;;;;;;85.78;49.00;;;;;;;1.87;97.65;100568.66;5050723;28;20049;-79
2023/12/27 06:07:24;;;;;;;77.95;43.63;;;;;;;2.00;98.21;100574.38;5033156;28;20032;-79
2023/12/27 06:09:49;;;;;;;69.07;38.08;;;;;;;2.39;97.06;100588.97;5051293;28;20627;-79
2023/12/27 06:12:15;;;;;;;53.15;31.98;;;;;;;2.20;97.09;100575.03;5052826;28;20027;-80
2023/12/27 06:14:40;;;;;;;59.78;33.38;;;;;;;2.11;98.71;100570.69;5051344;28;20059;-79
2023/12/27 06:17:06;;;;;;;52.63;32.50;;;;;;;2.69;96.53;100600.06;5050926;28;20060;-79
2023/12/27 06:19:31;;;;;;;47.20;29.98;;;;;;;2.50;97.48;100590.56;5050587;28;20476;-78
2023/12/27 06:21:57;;;;;;;51.10;27.70;;;;;;;1.79;100.00;100550.97;5053620;28;20112;-78
2023/12/27 06:24:23;;;;;;;48.42;30.17;;;;;;;1.92;100.00;100587.44;5050577;28;20079;-78
2023/12/27 06:26:48;;;;;;;45.45;29.15;;;;;;;1.78;100.00;100585.34;5050711;28;20029;-79
2023/12/27 06:29:14;;;;;;;85.90;51.33;;;;;;;2.07;100.00;100600.09;5050546;28;20036;-79
2023/12/27 06:31:39;;;;;;;83.10;53.15;;;;;;;2.06;100.00;100582.63;5050649;28;20045;-78
2023/12/27 06:34:06;;;;;;;121.68;67.60;;;;;;;2.16;100.00;100622.84;5050701;28;20037;-79
2023/12/27 06:36:31;;;;;;;112.93;61.10;;;;;;;2.05;100.00;100581.00;5050293;28;20102;-79
2023/12/27 06:38:57;;;;;;;78.82;45.47;;;;;;;2.52;100.00;100614.94;5050479;28;20036;-79
2023/12/27 06:41:22;;;;;;;91.43;57.58;;;;;;;2.73;100.00;100625.94;5032380;28;20521;-79
2023/12/27 06:43:48;;;;;;;68.70;40.35;;;;;;;2.83;98.57;100614.50;5050523;28;20033;-78
2023/12/27 06:46:13;;;;;;;70.10;47.58;;;;;;;2.47;100.00;100598.75;5050246;28;20393;-79
2023/12/27 06:48:39;;;;;;;62.67;38.10;;;;;;;2.62;100.00;100636.75;5032448;28;20037;-79
2023/12/27 06:51:06;;;;;;;64.20;40.58;;;;;;;2.61;100.00;100625.34;5052686;28;20112;-78
2023/12/27 06:53:35;;;;;;;64.10;40.97;;;;;;;3.18;99.86;100642.53;5050201;28;20025;-78
2023/12/27 06:56:01;;;;;;;63.38;36.75;;;;;;;3.38;99.49;100646.59;5050368;28;20033;-79
2023/12/27 06:58:26;;;;;;;71.13;39.63;;;;;;;3.60;98.10;100620.66;5050147;28;20040;-79
2023/12/27 07:00:52;;;;;;;67.40;41.08;;;;;;;4.07;96.74;100664.16;5033543;28;20021;-79
2023/12/27 07:03:17;;;;;;;79.38;42.58;;;;;;;4.22;95.33;100651.97;5051185;28;20036;-79
2023/12/27 07:05:42;;;;;;;60.05;36.22;;;;;;;4.48;95.01;100661.56;5049930;28;20059;-79
2023/12/27 07:08:08;;;;;;;54.92;34.80;;;;;;;4.89;94.30;100675.59;5032135;28;20033;-79
2023/12/27 07:10:33;;;;;;;57.35;37.17;;;;;;;5.12;96.90;100686.28;5049714;28;20786;-79
2023/12/27 07:12:59;;;;;;;64.85;42.75;;;;;;;4.93;97.95;100652.31;5052221;28;20124;-79
2023/12/27 07:15:24;;;;;;;64.25;38.90;;;;;;;5.32;97.30;100678.00;5048281;28;20036;-79
2023/12/27 07:17:50;;;;;;;60.20;39.45;;;;;;;5.49;96.81;100703.41;5049359;28;20537;-79
2023/12/27 07:20:16;;;;;;;114.80;70.88;;;;;;;5.27;96.61;100672.38;5031649;28;20406;-79
2023/12/27 07:22:41;;;;;;;66.68;43.20;;;;;;;5.94;94.47;100701.91;5051744;28;20494;-79
2023/12/27 07:25:07;;;;;;;51.08;37.17;;;;;;;5.87;95.37;100689.56;5061761;28;20062;-79
2023/12/27 07:27:32;;;;;;;47.55;33.58;;;;;;;6.02;93.72;100678.06;5042089;28;20453;-79
2023/12/27 07:29:58;;;;;;;44.67;29.40;;;;;;;6.40;91.76;100696.72;5049403;28;20383;-79
2023/12/27 07:32:23;;;;;;;44.78;29.73;;;;;;;6.88;91.33;100715.06;5051297;28;20032;-79
2023/12/27 07:34:48;;;;;;;62.33;35.72;;;;;;;7.06;91.44;100713.94;5049298;28;20032;-79
2023/12/27 07:37:14;;;;;;;33.20;20.98;;;;;;;7.09;90.23;100717.06;5048988;28;20429;-79
2023/12/27 07:39:40;;;;;;;35.80;21.77;;;;;;;7.51;89.34;100720.94;5048845;28;20114;-79
2023/12/27 07:42:05;;;;;;;30.33;19.63;;;;;;;7.72;88.33;100719.38;5033437;28;20033;-80
2023/12/27 07:44:31;;;;;;;28.63;18.77;;;;;;;7.83;88.41;100734.84;5031163;28;20040;-79
2023/12/27 07:46:56;;;;;;;36.40;21.13;;;;;;;16.16;59.59;100764.09;5049440;28;20029;-78
2023/12/27 07:49:23;;;;;;;66.63;34.08;;;;;;;17.52;51.92;100789.34;5049474;28;20116;-77
2023/12/27 07:51:49;;;;;;;68.70;54.53;;;;;;;15.71;57.32;100772.78;5051640;28;20025;-76
2023/12/27 07:54:15;;;;;;;49.67;35.50;;;;;;;13.42;63.31;100769.94;5049135;28;20086;-75
2023/12/27 07:56:40;;;;;;;58.88;41.55;;;;;;;14.52;60.19;100775.50;5049290;28;20025;-76
2023/12/27 07:59:06;;;;;;;62.95;40.95;;;;;;;15.43;55.12;100774.31;5049105;28;20021;-77
2023/12/27 08:01:31;;;;;;;60.00;41.58;;;;;;;12.38;60.00;100769.41;5033121;28;20604;-79
2023/12/27 08:03:59;;;;;;;58.78;41.45;;;;;;;10.52;67.03;100754.41;5054552;28;20028;-77
2023/12/27 08:06:24;;;;;;;63.30;45.20;;;;;;;10.25;71.89;100745.47;5052918;28;20558;-78
2023/12/27 08:08:49;;;;;;;59.03;40.75;;;;;;;10.11;71.25;100754.44;5052788;28;20136;-78
2023/12/27 08:11:16;;;;;;;61.67;44.28;;;;;;;9.84;75.59;100741.00;5030723;28;20070;-78
2023/12/27 08:13:42;;;;;;;54.35;39.53;;;;;;;9.64;79.49;100739.06;5057002;28;20473;-78
2023/12/27 08:16:07;;;;;;;29.38;20.88;;;;;;;10.17;77.74;100758.97;5049047;28;20021;-78
2023/12/27 08:18:33;;;;;;;33.90;22.90;;;;;;;10.33;77.86;100769.31;5048666;28;20083;-77
2023/12/27 08:20:58;;;;;;;17.30;11.88;;;;;;;10.55;76.49;100771.84;5048190;28;20028;-77
2023/12/27 08:23:23;;;;;;;17.50;10.85;;;;;;;10.69;75.98;100778.84;5050607;28;20629;-78
2023/12/27 08:25:49;;;;;;;16.83;10.77;;;;;;;10.86;74.68;100782.78;5048839;28;20028;-77
2023/12/27 08:28:15;;;;;;;15.85;10.25;;;;;;;10.84;75.19;100760.81;5048802;28;20056;-77
2023/12/27 08:30:41;;;;;;;18.83;8.57;;;;;;;11.24;74.22;100776.84;5049074;28;20021;-78
2023/12/27 08:33:07;;;;;;;15.00;8.38;;;;;;;11.52;72.80;100751.75;5052217;28;20041;-77
2023/12/27 08:35:36;;;;;;;15.02;8.55;;;;;;;11.56;73.40;100778.88;5049239;28;20033;-78
2023/12/27 08:38:02;;;;;;;15.25;8.70;;;;;;;11.90;72.92;100791.19;5061879;28;20028;-79
2023/12/27 08:40:28;;;;;;;14.98;7.78;;;;;;;11.90;73.39;100785.84;5075077;28;20025;-77
2023/12/27 08:42:54;;;;;;;17.55;8.40;;;;;;;12.08;72.84;100757.63;5061910;28;20408;-77
2023/12/27 08:45:20;;;;;;;12.15;7.90;;;;;;;12.19;71.13;100768.44;5061575;28;20713;-77
2023/12/27 08:47:46;;;;;;;15.63;8.05;;;;;;;12.14;72.40;100764.78;5061079;28;21001;-77
2023/12/27 08:50:11;;;;;;;12.35;7.53;;;;;;;12.23;71.80;100752.81;5062931;28;20071;-78
2023/12/27 08:52:38;;;;;;;12.43;8.20;;;;;;;12.72;70.77;100786.09;5047242;28;20029;-79
2023/12/27 08:55:05;;;;;;;13.52;7.10;;;;;;;12.95;69.50;100763.28;5065151;28;20054;-79
2023/12/27 08:57:31;;;;;;;13.45;8.45;;;;;;;13.12;69.73;100783.16;5047949;28;20704;-78
2023/12/27 08:59:57;;;;;;;13.65;7.03;;;;;;;13.34;67.63;100766.72;5061621;28;20029;-79
2023/12/27 09:02:23;;;;;;;14.00;7.63;;;;;;;13.30;68.02;100762.84;5060057;28;20055;-78
2023/12/27 09:04:48;;;;;;;13.93;6.82;;;;;;;13.70;66.68;100762.47;5060193;28;20180;-79
2023/12/27 09:07:14;;;;;;;14.38;6.68;;;;;;;14.07;65.42;100763.25;5041096;28;20093;-78
2023/12/27 09:09:40;;;;;;;12.05;6.50;;;;;;;14.10;64.90;100744.06;5058601;28;20956;-77
2023/12/27 09:12:05;;;;;;;12.55;6.03;;;;;;;14.40;64.24;100757.47;5059662;28;20087;-78
2023/12/27 09:14:31;;;;;;;11.18;6.57;;;;;;;14.58;63.78;100748.59;5055752;28;20025;-78
2023/12/27 09:16:56;;;;;;;10.75;6.85;;;;;;;14.64;63.03;100730.75;5054273;28;20079;-78
2023/12/27 09:19:22;;;;;;;15.40;7.03;;;;;;;14.99;62.79;100756.88;5051681;28;20036;-78
2023/12/27 09:21:47;;;;;;;12.05;5.65;;;;;;;14.73;62.34;100740.13;5054570;28;20111;-78
2023/12/27 09:24:13;;;;;;;13.95;6.18;;;;;;;15.06;62.54;100752.22;5026895;28;20048;-78
2023/12/27 09:26:39;;;;;;;12.65;6.32;;;;;;;15.21;60.96;100752.56;5046823;28;20028;-78
2023/12/27 09:29:04;;;;;;;10.75;5.82;;;;;;;15.34;59.92;100729.19;5046908;28;20029;-78
2023/12/27 09:31:30;;;;;;;9.18;4.47;;;;;;;15.63;57.31;100741.69;5024681;28;20044;-78
2023/12/27 09:33:58;;;;;;;10.27;5.35;;;;;;;15.66;56.02;100735.03;5052573;28;20033;-77
2023/12/27 09:36:23;;;;;;;8.15;3.88;;;;;;;16.13;54.75;100750.28;5041791;28;20026;-77
2023/12/27 09:38:49;;;;;;;9.57;3.80;;;;;;;16.07;54.62;100735.91;5040099;28;20025;-77
2023/12/27 09:41:14;;;;;;;8.48;3.92;;;;;;;16.34;53.52;100751.47;5041432;28;20029;-79
2023/12/27 09:43:42;;;;;;;8.52;3.63;;;;;;;16.38;52.92;100739.19;5050093;28;20104;-77
2023/12/27 09:46:09;;;;;;;9.48;3.92;;;;;;;16.25;52.99;100738.41;5034986;28;20557;-78
2023/12/27 09:48:36;;;;;;;6.60;3.57;;;;;;;16.53;52.64;100752.09;5029795;28;20044;-77
2023/12/27 09:51:04;;;;;;;9.93;4.05;;;;;;;16.44;51.54;100744.41;5047646;28;20068;-77
2023/12/27 09:53:30;;;;;;;9.07;3.97;;;;;;;16.22;52.30;100740.75;5027813;28;20043;-78
2023/12/27 09:55:55;;;;;;;7.93;4.57;;;;;;;16.64;52.99;100749.34;5047267;28;20033;-78
2023/12/27 09:58:26;;;;;;;9.63;3.95;;;;;;;16.52;51.03;100724.38;5029087;28;20414;-78
2023/12/27 10:00:55;;;;;;;9.20;4.28;;;;;;;16.92;51.55;100722.63;5045165;28;20041;-77
2023/12/27 10:03:34;;;;;;;7.95;4.22;;;;;;;17.32;50.49;100711.66;5045954;28;20156;-77
2023/12/27 10:06:41;;;;;;;6.68;4.03;;;;;;;17.47;49.50;100740.72;5028008;28;20053;-78
2023/12/27 10:09:07;;;;;;;8.23;4.27;;;;;;;17.66;49.62;100738.56;5045924;28;20090;-79
2023/12/27 10:11:33;;;;;;;7.78;3.88;;;;;;;18.03;47.71;100740.66;5045339;28;20024;-78
2023/12/27 10:13:59;;;;;;;8.68;3.83;;;;;;;17.53;48.07;100722.72;5045793;28;20021;-78
2023/12/27 10:16:26;;;;;;;10.32;4.82;;;;;;;17.64;48.98;100728.00;5045069;28;20028;-77
2023/12/27 10:18:51;;;;;;;9.63;5.57;;;;;;;17.74;47.87;100721.13;5045162;28;20029;-77
2023/12/27 10:21:18;;;;;;;7.97;4.47;;;;;;;17.93;47.17;100725.16;5044964;28;20017;-77
2023/12/27 10:23:44;;;;;;;13.05;6.20;;;;;;;17.97;46.16;100709.28;5046779;28;20114;-78
2023/12/27 10:26:09;;;;;;;9.05;4.93;;;;;;;18.22;46.46;100698.75;5046544;28;20473;-77
2023/12/27 10:28:35;;;;;;;9.02;4.15;;;;;;;18.30;45.66;100688.59;5046608;28;20021;-77
2023/12/27 10:31:04;;;;;;;9.38;3.70;;;;;;;18.18;45.09;100686.03;5046464;28;20112;-78
2023/12/27 10:33:39;;;;;;;9.57;3.80;;;;;;;17.90;45.38;100685.22;5049068;28;20044;-77
2023/12/27 10:36:05;;;;;;;7.70;3.92;;;;;;;17.91;45.90;100684.13;5047020;28;20847;-77
2023/12/27 10:38:30;;;;;;;9.35;4.25;;;;;;;18.09;45.88;100674.06;5046858;28;20086;-77
2023/12/27 10:40:56;;;;;;;9.60;3.63;;;;;;;18.35;45.57;100691.31;5046554;28;20029;-78
2023/12/27 10:43:25;;;;;;;10.20;4.60;;;;;;;18.39;45.32;100682.47;5048011;28;20094;-78
2023/12/27 10:45:50;;;;;;;9.63;3.63;;;;;;;18.81;44.29;100679.06;5046876;28;20040;-78
2023/12/27 10:48:17;;;;;;;7.40;3.40;;;;;;;18.38;45.44;100671.94;5044046;28;20132;-77
2023/12/27 10:50:44;;;;;;;6.93;3.47;;;;;;;18.33;44.65;100655.66;5032078;28;20199;-77
2023/12/27 10:53:14;;;;;;;6.55;3.13;;;;;;;18.28;44.28;100645.63;5051276;28;20027;-77
2023/12/27 10:55:42;;;;;;;9.95;3.90;;;;;;;18.54;45.26;100653.97;5050143;28;20036;-77
2023/12/27 10:58:13;;;;;;;;;;;;;;;18.70;44.00;100671.94;5050349;28;20021;-77
2023/12/27 11:00:39;;;;;;;7.45;3.85;;;;;;;18.75;44.24;100673.84;5058183;28;19920;-76
2023/12/27 11:03:06;;;;;;;8.02;3.42;;;;;;;18.83;43.07;100671.50;5050371;28;20032;-77
2023/12/27 11:05:33;;;;;;;9.70;3.20;;;;;;;19.25;42.80;100670.72;5050200;28;20079;-77
2023/12/27 11:08:00;;;;;;;6.68;3.25;;;;;;;19.35;41.09;100661.84;5050055;28;20644;-78
2023/12/27 11:10:29;;;;;;;5.53;3.03;;;;;;;19.52;41.18;100655.44;5050329;28;20032;-76